createdAt,value
2022-12-06T00:01:05.606Z,101090.22
2022-12-06T00:03:32.371Z,101079.97
2022-12-06T00:06:08.490Z,101080.88
2022-12-06T00:08:35.742Z,101082.59
2022-12-06T00:11:04.982Z,101083.47
2022-12-06T00:13:31.644Z,101073.19
2022-12-06T00:16:03.586Z,101074.00
2022-12-06T00:18:32.065Z,101074.13
2022-12-06T00:21:16.129Z,101074.34
2022-12-06T00:23:45.712Z,101069.84
2022-12-06T00:26:13.143Z,101060.69
2022-12-06T00:28:40.030Z,101068.19
2022-12-06T00:31:13.791Z,101069.78
2022-12-06T00:33:40.891Z,101057.72
2022-12-06T00:36:11.696Z,101055.94
2022-12-06T00:38:38.526Z,101056.78
2022-12-06T00:41:12.486Z,101054.25
2022-12-06T00:43:40.023Z,101050.00
2022-12-06T00:46:08.441Z,101048.31
2022-12-06T00:48:35.204Z,101062.97
2022-12-06T00:51:01.819Z,101053.56
2022-12-06T00:53:28.795Z,101056.97
2022-12-06T00:55:55.435Z,101053.50
2022-12-06T00:58:23.121Z,101055.16
2022-12-06T01:00:51.233Z,101055.19
2022-12-06T01:03:17.950Z,101050.06
2022-12-06T01:05:49.815Z,101051.88
2022-12-06T01:08:17.610Z,101050.09
2022-12-06T01:10:54.132Z,101048.44
2022-12-06T01:13:21.084Z,101044.16
2022-12-06T01:15:47.928Z,101051.00
2022-12-06T01:18:14.684Z,101047.47
2022-12-06T01:20:41.278Z,101038.00
2022-12-06T01:23:07.970Z,101038.94
2022-12-06T01:25:36.380Z,101044.94
2022-12-06T01:28:03.844Z,101047.38
2022-12-06T01:30:30.967Z,101044.84
2022-12-06T01:32:57.599Z,101043.97
2022-12-06T01:35:24.178Z,101039.78
2022-12-06T01:37:50.808Z,101033.81
2022-12-06T01:40:17.343Z,101033.75
2022-12-06T01:42:43.953Z,101032.00
2022-12-06T01:45:10.799Z,101025.16
2022-12-06T01:47:43.089Z,101026.84
2022-12-06T01:50:23.186Z,101036.03
2022-12-06T01:53:25.283Z,101028.31
2022-12-06T01:55:53.110Z,101015.69
2022-12-06T01:58:25.180Z,101015.69
2022-12-06T02:00:51.938Z,101013.84
2022-12-06T02:03:22.617Z,101000.09
2022-12-06T02:05:49.502Z,101001.03
2022-12-06T02:08:17.576Z,100992.44
2022-12-06T02:10:44.249Z,100997.47
2022-12-06T02:13:11.194Z,100982.94
2022-12-06T02:15:49.021Z,100988.13
2022-12-06T02:18:42.632Z,100982.22
2022-12-06T02:21:09.145Z,100986.75
2022-12-06T02:23:58.107Z,100964.44
2022-12-06T02:26:30.584Z,100978.97
2022-12-06T02:29:00.143Z,100968.69
2022-12-06T02:31:45.402Z,100972.03
2022-12-06T02:34:18.534Z,100961.72
2022-12-06T02:37:02.755Z,100955.03
2022-12-06T02:40:07.520Z,100958.47
2022-12-06T02:42:40.404Z,100966.19
2022-12-06T02:45:19.183Z,100958.59
2022-12-06T02:47:48.820Z,100944.81
2022-12-06T02:50:22.602Z,100946.56
2022-12-06T02:52:53.779Z,100950.97
2022-12-06T02:55:23.614Z,100956.03
2022-12-06T02:57:53.259Z,100959.22
2022-12-06T03:00:28.992Z,100958.28
2022-12-06T03:03:06.354Z,100947.19
2022-12-06T03:05:41.264Z,100946.94
2022-12-06T03:08:18.543Z,100945.66
2022-12-06T03:10:50.721Z,100940.28
2022-12-06T03:14:02.514Z,100944.31
2022-12-06T03:16:34.899Z,100941.03
2022-12-06T03:19:12.010Z,100945.09
2022-12-06T03:21:50.617Z,100938.31
2022-12-06T03:24:17.450Z,100935.22
2022-12-06T03:26:48.298Z,100938.53
2022-12-06T03:29:18.590Z,100941.25
2022-12-06T03:31:46.895Z,100953.97
2022-12-06T03:34:17.307Z,100955.56
2022-12-06T03:36:46.557Z,100952.34
2022-12-06T03:39:16.185Z,100956.63
2022-12-06T03:41:48.453Z,100953.03
2022-12-06T03:44:15.315Z,100952.91
2022-12-06T03:46:48.671Z,100950.78
2022-12-06T03:49:21.513Z,100956.06
2022-12-06T03:51:48.486Z,100950.03
2022-12-06T03:54:16.146Z,100955.06
2022-12-06T03:56:42.872Z,100948.03
2022-12-06T03:59:11.212Z,100933.63
2022-12-06T04:01:38.944Z,100947.47
2022-12-06T04:04:06.183Z,100933.22
2022-12-06T04:06:33.225Z,100930.81
2022-12-06T04:09:18.478Z,100925.19
2022-12-06T04:11:45.584Z,100924.31
2022-12-06T04:14:12.297Z,100927.69
2022-12-06T04:16:57.112Z,100936.28
2022-12-06T04:19:23.727Z,100927.16
2022-12-06T04:22:08.647Z,100928.72
2022-12-06T04:24:35.244Z,100932.03
2022-12-06T04:27:20.768Z,100937.78
2022-12-06T04:30:06.013Z,100928.94
2022-12-06T04:32:51.245Z,100928.06
2022-12-06T04:35:36.558Z,100915.88
2022-12-06T04:38:21.888Z,100920.47
2022-12-06T04:40:48.649Z,100928.94
2022-12-06T04:43:33.924Z,100928.59
2022-12-06T04:46:00.590Z,100927.09
2022-12-06T04:48:27.176Z,100922.97
2022-12-06T04:50:53.756Z,100924.81
2022-12-06T04:53:20.284Z,100922.25
2022-12-06T04:55:47.777Z,100916.22
2022-12-06T04:58:15.711Z,100910.19
2022-12-06T05:00:43.722Z,100900.69
2022-12-06T05:03:11.770Z,100894.75
2022-12-06T05:05:38.573Z,100898.84
2022-12-06T05:08:05.598Z,100895.38
2022-12-06T05:10:33.220Z,100897.75
2022-12-06T05:13:00.564Z,100892.53
2022-12-06T05:15:29.357Z,100894.59
2022-12-06T05:17:56.224Z,100889.56
2022-12-06T05:20:23.447Z,100878.53
2022-12-06T05:22:50.333Z,100892.00
2022-12-06T05:25:17.189Z,100892.19
2022-12-06T05:27:44.754Z,100894.78
2022-12-06T05:30:11.938Z,100885.56
2022-12-06T05:32:40.108Z,100890.78
2022-12-06T05:35:07.566Z,100872.97
2022-12-06T05:37:34.119Z,100891.53
2022-12-06T05:40:00.887Z,100886.31
2022-12-06T05:42:27.720Z,100875.28
2022-12-06T05:44:54.301Z,100873.56
2022-12-06T05:47:21.020Z,100883.81
2022-12-06T05:49:47.662Z,100885.97
2022-12-06T05:52:14.360Z,100865.47
2022-12-06T05:54:40.990Z,100866.44
2022-12-06T05:57:07.590Z,100866.44
2022-12-06T05:59:34.234Z,100867.16
2022-12-06T06:02:01.089Z,100860.53
2022-12-06T06:04:27.807Z,100865.66
2022-12-06T06:06:54.576Z,100858.84
2022-12-06T06:09:21.382Z,100862.31
2022-12-06T06:11:47.909Z,100863.03
2022-12-06T06:14:14.899Z,100859.59
2022-12-06T06:16:41.597Z,100862.28
2022-12-06T06:19:08.326Z,100858.84
2022-12-06T06:21:34.897Z,100844.94
2022-12-06T06:24:01.848Z,100850.81
2022-12-06T06:26:28.974Z,100850.75
2022-12-06T06:28:55.809Z,100853.31
2022-12-06T06:31:22.440Z,100842.31
2022-12-06T06:33:49.104Z,100844.13
2022-12-06T06:36:15.792Z,100849.25
2022-12-06T06:38:42.483Z,100857.84
2022-12-06T06:41:09.175Z,100845.09
2022-12-06T06:43:35.956Z,100840.69
2022-12-06T06:46:06.962Z,100848.72
2022-12-06T06:48:36.854Z,100862.53
2022-12-06T06:51:08.708Z,100846.13
2022-12-06T06:53:40.158Z,100853.53
2022-12-06T06:56:07.591Z,100858.03
2022-12-06T06:58:34.441Z,100861.72
2022-12-06T07:01:03.231Z,100859.22
2022-12-06T07:03:30.281Z,100855.72
2022-12-06T07:05:59.659Z,100858.09
2022-12-06T07:08:29.505Z,100865.75
2022-12-06T07:10:56.467Z,100853.97
2022-12-06T07:13:24.579Z,100864.44
2022-12-06T07:15:51.701Z,100863.63
2022-12-06T07:18:19.527Z,100850.09
2022-12-06T07:20:47.645Z,100857.59
2022-12-06T07:23:15.272Z,100856.78
2022-12-06T07:25:41.991Z,100856.78
2022-12-06T07:28:08.700Z,100854.91
2022-12-06T07:30:35.524Z,100856.56
2022-12-06T07:33:02.385Z,100854.03
2022-12-06T07:35:48.392Z,100851.66
2022-12-06T07:38:15.860Z,100859.97
2022-12-06T07:43:47.872Z,100854.78
2022-12-06T07:46:14.568Z,100861.59
2022-12-06T07:48:41.169Z,100859.00
2022-12-06T07:51:07.837Z,100866.69
2022-12-06T07:53:34.620Z,100866.50
2022-12-06T07:56:08.531Z,100863.88
2022-12-06T07:58:35.398Z,100862.09
2022-12-06T08:01:04.464Z,100854.53
2022-12-06T08:03:31.731Z,100864.75
2022-12-06T08:05:58.490Z,100861.34
2022-12-06T08:08:28.789Z,100866.69
2022-12-06T08:10:59.960Z,100858.09
2022-12-06T08:13:27.063Z,100847.50
2022-12-06T08:15:53.845Z,100853.31
2022-12-06T08:18:21.061Z,100850.06
2022-12-06T08:20:48.099Z,100854.47
2022-12-06T08:23:14.863Z,100857.84
2022-12-06T08:25:41.537Z,100851.78
2022-12-06T08:28:08.188Z,100848.56
2022-12-06T08:30:35.028Z,100838.97
2022-12-06T08:33:01.838Z,100838.75
2022-12-06T08:35:28.577Z,100840.25
2022-12-06T08:37:55.294Z,100851.97
2022-12-06T08:40:22.176Z,100842.03
2022-12-06T08:42:56.399Z,100842.84
2022-12-06T08:45:23.077Z,100844.66
2022-12-06T08:47:49.675Z,100834.31
2022-12-06T08:50:16.246Z,100839.44
2022-12-06T08:52:42.930Z,100848.78
2022-12-06T08:55:09.730Z,100842.84
2022-12-06T08:57:36.404Z,100838.78
2022-12-06T09:00:05.875Z,100851.31
2022-12-06T09:02:32.474Z,100849.59
2022-12-06T09:04:59.197Z,100848.63
2022-12-06T09:07:26.602Z,100859.78
2022-12-06T09:09:54.706Z,100856.22
2022-12-06T09:12:21.889Z,100847.69
2022-12-06T09:14:48.525Z,100855.75
2022-12-06T09:17:15.305Z,100854.88
2022-12-06T09:19:42.071Z,100858.09
2022-12-06T09:22:08.722Z,100860.56
2022-12-06T09:24:35.387Z,100854.47
2022-12-06T09:27:02.068Z,100857.19
2022-12-06T09:29:28.860Z,100857.16
2022-12-06T09:31:55.556Z,100843.44
2022-12-06T09:34:22.284Z,100854.25
2022-12-06T09:37:08.097Z,100853.09
2022-12-06T09:39:39.525Z,100854.91
2022-12-06T09:42:12.121Z,100858.25
2022-12-06T09:44:53.694Z,100860.56
2022-12-06T09:47:32.368Z,100849.25
2022-12-06T09:50:26.634Z,100853.28
2022-12-06T09:53:21.354Z,100850.72
2022-12-06T09:56:00.616Z,100845.13
2022-12-06T09:58:51.871Z,100842.81
2022-12-06T10:01:36.701Z,100844.47
2022-12-06T10:04:29.374Z,100840.97
2022-12-06T10:07:19.996Z,100828.53
2022-12-06T10:10:03.334Z,100832.75
2022-12-06T10:12:48.452Z,100830.81
2022-12-06T10:15:46.399Z,100832.72
2022-12-06T10:18:21.017Z,100827.38
2022-12-06T10:21:24.567Z,100814.19
2022-12-06T10:24:13.825Z,100824.13
2022-12-06T10:26:51.883Z,100831.19
2022-12-06T10:29:29.705Z,100819.28
2022-12-06T10:32:05.999Z,100820.69
2022-12-06T10:34:58.288Z,100811.50
2022-12-06T10:37:59.905Z,100813.19
2022-12-06T10:40:45.203Z,100825.72
2022-12-06T10:43:25.433Z,100803.28
2022-12-06T10:46:24.096Z,100791.94
2022-12-06T10:49:09.169Z,100787.31
2022-12-06T10:51:56.315Z,100791.66
2022-12-06T10:54:33.648Z,100794.31
2022-12-06T10:57:06.338Z,100792.81
2022-12-06T10:59:54.476Z,100793.69
2022-12-06T11:02:53.688Z,100784.97
2022-12-06T11:05:30.568Z,100781.03
2022-12-06T11:08:11.894Z,100789.47
2022-12-06T11:10:42.040Z,100783.53
2022-12-06T11:13:31.077Z,100783.78
2022-12-06T11:16:05.846Z,100776.06
2022-12-06T11:18:34.035Z,100776.88
2022-12-06T11:21:03.710Z,100770.56
2022-12-06T11:23:50.947Z,100777.13
2022-12-06T11:26:41.813Z,100779.53
2022-12-06T11:29:14.030Z,100776.88
2022-12-06T11:31:50.807Z,100780.16
2022-12-06T11:34:17.588Z,100772.03
2022-12-06T11:36:45.268Z,100770.50
2022-12-06T11:39:13.836Z,100774.97
2022-12-06T11:41:43.508Z,100765.59
2022-12-06T11:44:18.958Z,100763.47
2022-12-06T11:46:50.320Z,100760.91
2022-12-06T11:49:39.992Z,100760.25
2022-12-06T11:52:12.842Z,100759.72
2022-12-06T11:54:55.164Z,100757.09
2022-12-06T11:57:50.598Z,100753.84
2022-12-06T12:00:23.912Z,100747.78
2022-12-06T12:02:53.761Z,100743.13
2022-12-06T12:05:24.143Z,100751.06
2022-12-06T12:08:00.000Z,100754.56
2022-12-06T12:10:32.928Z,100740.41
2022-12-06T12:13:45.531Z,100730.22
2022-12-06T12:16:15.155Z,100725.63
2022-12-06T12:18:49.877Z,100743.06
2022-12-06T12:21:17.548Z,100734.72
2022-12-06T12:23:46.840Z,100731.09
2022-12-06T12:26:17.017Z,100725.09
2022-12-06T12:28:46.053Z,100713.91
2022-12-06T12:31:24.492Z,100717.66
2022-12-06T12:34:25.809Z,100722.53
2022-12-06T12:36:56.871Z,100713.09
2022-12-06T12:39:45.351Z,100713.25
2022-12-06T12:42:29.908Z,100711.13
2022-12-06T12:45:00.110Z,100699.47
2022-12-06T12:47:27.302Z,100701.97
2022-12-06T12:50:02.039Z,100706.88
2022-12-06T12:52:37.629Z,100697.69
2022-12-06T12:55:13.475Z,100704.72
2022-12-06T12:57:45.026Z,100697.78
2022-12-06T13:00:37.302Z,100695.25
2022-12-06T13:03:28.561Z,100698.19
2022-12-06T13:06:00.082Z,100690.56
2022-12-06T13:08:33.900Z,100687.19
2022-12-06T13:11:03.366Z,100699.22
2022-12-06T13:13:43.639Z,100695.88
2022-12-06T13:16:18.361Z,100690.84
2022-12-06T13:18:52.746Z,100693.44
2022-12-06T13:21:31.889Z,100688.38
2022-12-06T13:24:10.848Z,100692.66
2022-12-06T13:26:43.236Z,100695.13
2022-12-06T13:29:23.526Z,100694.31
2022-12-06T13:31:53.665Z,100691.59
2022-12-06T13:34:23.222Z,100678.91
2022-12-06T13:36:52.268Z,100676.34
2022-12-06T13:39:30.965Z,100683.97
2022-12-06T13:42:18.349Z,100676.47
2022-12-06T13:44:48.211Z,100677.34
2022-12-06T13:47:27.119Z,100683.22
2022-12-06T13:49:54.801Z,100675.31
2022-12-06T13:52:43.276Z,100676.91
2022-12-06T13:55:25.096Z,100677.06
2022-12-06T13:58:04.024Z,100678.75
2022-12-06T14:00:30.667Z,100681.34
2022-12-06T14:02:59.442Z,100670.38
2022-12-06T14:08:52.042Z,100669.72
2022-12-06T14:11:33.947Z,100675.66
2022-12-06T14:14:08.877Z,100678.66
2022-12-06T14:16:56.981Z,100676.25
2022-12-06T14:19:46.973Z,100672.34
2022-12-06T14:22:28.539Z,100674.72
2022-12-06T14:25:08.044Z,100666.06
2022-12-06T14:27:49.176Z,100661.78
2022-12-06T14:30:26.393Z,100670.09
2022-12-06T14:32:58.635Z,100658.84
2022-12-06T14:35:37.283Z,100657.69
2022-12-06T14:38:25.231Z,100669.00
2022-12-06T14:41:11.040Z,100668.97
2022-12-06T14:43:39.724Z,100671.56
2022-12-06T14:46:15.615Z,100672.56
2022-12-06T14:49:02.486Z,100670.66
2022-12-06T14:51:38.555Z,100651.81
2022-12-06T14:54:18.163Z,100662.09
2022-12-06T14:56:45.240Z,100659.75
2022-12-06T14:59:12.762Z,100655.72
2022-12-06T15:01:51.075Z,100657.22
2022-12-06T15:04:26.587Z,100671.03
2022-12-06T15:06:56.013Z,100679.94
2022-12-06T15:09:23.005Z,100662.06
2022-12-06T15:12:08.249Z,100670.69
2022-12-06T15:14:35.606Z,100671.56
2022-12-06T15:17:08.200Z,100668.53
2022-12-06T15:19:38.882Z,100658.28
2022-12-06T15:22:19.936Z,100659.78
2022-12-06T15:24:51.872Z,100664.53
2022-12-06T15:27:20.305Z,100658.63
2022-12-06T15:29:47.348Z,100650.66
2022-12-06T15:32:19.016Z,100647.97
2022-12-06T15:34:45.947Z,100659.69
2022-12-06T15:37:38.155Z,100656.50
2022-12-06T15:40:02.137Z,100663.00
2022-12-06T15:42:28.967Z,100648.56
2022-12-06T15:44:55.912Z,100655.25
2022-12-06T15:47:22.627Z,100655.16
2022-12-06T15:49:51.798Z,100662.81
2022-12-06T15:52:23.527Z,100656.25
2022-12-06T15:54:50.733Z,100647.63
2022-12-06T15:57:17.792Z,100648.56
2022-12-06T15:59:44.497Z,100640.56
2022-12-06T16:02:16.835Z,100642.22
2022-12-06T16:04:44.583Z,100627.81
2022-12-06T16:07:13.215Z,100635.53
2022-12-06T16:09:44.102Z,100643.81
2022-12-06T16:12:10.885Z,100633.69
2022-12-06T16:14:37.630Z,100635.25
2022-12-06T16:17:04.266Z,100635.06
2022-12-06T16:19:50.947Z,100629.06
2022-12-06T16:22:17.672Z,100635.09
2022-12-06T16:24:46.194Z,100632.50
2022-12-06T16:27:14.903Z,100613.81
2022-12-06T16:29:41.542Z,100618.13
2022-12-06T16:32:08.198Z,100623.63
2022-12-06T16:34:34.847Z,100629.03
2022-12-06T16:37:04.084Z,100626.53
2022-12-06T16:39:33.646Z,100634.13
2022-12-06T16:42:01.245Z,100623.91
2022-12-06T16:44:27.911Z,100626.09
2022-12-06T16:46:54.692Z,100616.66
2022-12-06T16:52:10.762Z,100609.75
2022-12-06T16:54:41.570Z,100628.56
2022-12-06T16:57:10.131Z,100621.59
2022-12-06T16:59:36.897Z,100612.94
2022-12-06T17:02:08.507Z,100611.31
2022-12-06T17:04:38.312Z,100609.03
2022-12-06T17:07:05.037Z,100615.66
2022-12-06T17:09:31.663Z,100608.84
2022-12-06T17:12:12.667Z,100600.91
2022-12-06T17:14:40.009Z,100608.66
2022-12-06T17:17:06.591Z,100593.41
2022-12-06T17:19:33.638Z,100603.81
2022-12-06T17:22:06.181Z,100603.22
2022-12-06T17:24:33.375Z,100611.81
2022-12-06T17:27:00.023Z,100611.38
2022-12-06T17:29:28.513Z,100614.16
2022-12-06T17:31:56.322Z,100602.13
2022-12-06T17:34:25.518Z,100601.13
2022-12-06T17:36:52.642Z,100592.47
2022-12-06T17:39:21.019Z,100595.75
2022-12-06T17:42:06.387Z,100595.19
2022-12-06T17:44:34.074Z,100595.41
2022-12-06T17:47:01.522Z,100589.53
2022-12-06T17:49:28.848Z,100591.00
2022-12-06T17:51:55.850Z,100591.16
2022-12-06T17:54:22.949Z,100594.44
2022-12-06T17:56:53.992Z,100592.63
2022-12-06T17:59:23.213Z,100597.00
2022-12-06T18:02:13.992Z,100586.00
2022-12-06T18:04:37.762Z,100574.78
2022-12-06T18:07:04.304Z,100578.38
2022-12-06T18:09:31.203Z,100574.84
2022-12-06T18:11:57.969Z,100577.34
2022-12-06T18:14:24.674Z,100577.06
2022-12-06T18:16:51.399Z,100562.31
2022-12-06T18:19:25.216Z,100565.91
2022-12-06T18:21:52.293Z,100562.75
2022-12-06T18:24:21.885Z,100557.69
2022-12-06T18:26:50.148Z,100563.53
2022-12-06T18:29:19.712Z,100556.59
2022-12-06T18:31:46.771Z,100555.88
2022-12-06T18:34:13.869Z,100558.44
2022-12-06T18:36:40.927Z,100549.25
2022-12-06T18:39:14.876Z,100551.75
2022-12-06T18:41:45.213Z,100557.78
2022-12-06T18:44:12.612Z,100553.59
2022-12-06T18:46:41.519Z,100545.59
2022-12-06T18:49:10.463Z,100547.94
2022-12-06T18:51:38.589Z,100545.38
2022-12-06T18:54:06.306Z,100543.84
2022-12-06T18:56:34.133Z,100541.41
2022-12-06T18:59:03.121Z,100548.22
2022-12-06T19:01:32.566Z,100547.34
2022-12-06T19:04:01.110Z,100537.75
2022-12-06T19:06:31.536Z,100527.34
2022-12-06T19:09:02.298Z,100528.94
2022-12-06T19:11:29.034Z,100530.59
2022-12-06T19:14:00.352Z,100525.28
2022-12-06T19:16:37.832Z,100524.44
2022-12-06T19:19:12.703Z,100528.69
2022-12-06T19:21:43.979Z,100522.59
2022-12-06T19:24:12.516Z,100520.31
2022-12-06T19:26:39.216Z,100511.03
2022-12-06T19:29:05.891Z,100512.28
2022-12-06T19:31:33.226Z,100517.03
2022-12-06T19:34:00.113Z,100517.94
2022-12-06T19:36:28.879Z,100504.19
2022-12-06T19:39:00.066Z,100511.84
2022-12-06T19:41:27.468Z,100511.03
2022-12-06T19:44:12.835Z,100510.13
2022-12-06T19:46:42.818Z,100516.09
2022-12-06T19:49:10.301Z,100509.28
2022-12-06T19:51:42.344Z,100509.34
2022-12-06T19:54:11.740Z,100510.97
2022-12-06T19:56:39.276Z,100499.69
2022-12-06T19:59:12.944Z,100500.47
2022-12-06T20:01:41.824Z,100495.44
2022-12-06T20:04:09.191Z,100496.09
2022-12-06T20:06:36.611Z,100489.22
2022-12-06T20:09:04.054Z,100486.63
2022-12-06T20:11:49.415Z,100479.03
2022-12-06T20:14:21.342Z,100481.59
2022-12-06T20:16:48.305Z,100467.09
2022-12-06T20:19:16.398Z,100477.00
2022-12-06T20:21:46.742Z,100469.38
2022-12-06T20:24:16.644Z,100479.03
2022-12-06T20:26:43.242Z,100473.97
2022-12-06T20:29:10.460Z,100457.91
2022-12-06T20:31:37.212Z,100467.81
2022-12-06T20:34:10.263Z,100460.72
2022-12-06T20:36:41.668Z,100447.84
2022-12-06T20:39:08.615Z,100451.88
2022-12-06T20:41:35.254Z,100451.38
2022-12-06T20:44:02.695Z,100450.38
2022-12-06T20:46:31.206Z,100445.97
2022-12-06T20:49:03.740Z,100445.78
2022-12-06T20:51:31.418Z,100439.22
2022-12-06T20:54:00.462Z,100437.66
2022-12-06T20:56:30.306Z,100442.00
2022-12-06T20:58:58.699Z,100439.63
2022-12-06T21:01:27.953Z,100434.44
2022-12-06T21:03:55.044Z,100431.94
2022-12-06T21:06:24.045Z,100425.13
2022-12-06T21:08:51.604Z,100415.81
2022-12-06T21:11:23.805Z,100421.59
2022-12-06T21:13:53.460Z,100414.78
2022-12-06T21:16:28.582Z,100418.06
2022-12-06T21:19:03.686Z,100416.44
2022-12-06T21:21:35.514Z,100417.50
2022-12-06T21:24:04.321Z,100408.66
2022-12-06T21:26:31.036Z,100404.50
2022-12-06T21:28:57.953Z,100399.59
2022-12-06T21:31:36.065Z,100403.06
2022-12-06T21:34:03.077Z,100396.25
2022-12-06T21:36:30.007Z,100389.41
2022-12-06T21:38:58.167Z,100395.28
2022-12-06T21:41:25.491Z,100401.31
2022-12-06T21:43:52.529Z,100391.09
2022-12-06T21:46:22.955Z,100393.84
2022-12-06T21:48:51.510Z,100393.06
2022-12-06T21:51:18.908Z,100399.78
2022-12-06T21:53:45.709Z,100395.38
2022-12-06T21:56:15.545Z,100396.56
2022-12-06T21:58:42.215Z,100396.03
2022-12-06T22:01:11.313Z,100392.78
2022-12-06T22:03:38.937Z,100401.44
2022-12-06T22:06:07.870Z,100390.47
2022-12-06T22:08:34.904Z,100397.28
2022-12-06T22:11:06.338Z,100396.41
2022-12-06T22:13:32.917Z,100387.97
2022-12-06T22:16:06.869Z,100391.56
2022-12-06T22:18:37.735Z,100388.88
2022-12-06T22:21:22.409Z,100393.88
2022-12-06T22:23:49.332Z,100388.06
2022-12-06T22:26:18.785Z,100392.31
2022-12-06T22:28:46.100Z,100382.06
2022-12-06T22:31:19.048Z,100379.31
2022-12-06T22:33:46.700Z,100383.66
2022-12-06T22:36:14.204Z,100385.34
2022-12-06T22:38:41.037Z,100379.13
2022-12-06T22:41:08.783Z,100372.31
2022-12-06T22:43:35.658Z,100370.69
2022-12-06T22:46:14.393Z,100368.13
2022-12-06T22:48:42.713Z,100368.31
2022-12-06T22:51:14.420Z,100363.34
2022-12-06T22:53:43.349Z,100362.47
2022-12-06T22:56:10.340Z,100349.84
2022-12-06T22:58:37.796Z,100344.72
2022-12-06T23:01:16.512Z,100341.78
2022-12-06T23:03:48.452Z,100344.38
2022-12-06T23:06:17.320Z,100339.41
2022-12-06T23:08:44.320Z,100336.81
2022-12-06T23:11:13.762Z,100337.78
2022-12-06T23:13:40.891Z,100332.56
2022-12-06T23:16:12.349Z,100333.38
2022-12-06T23:18:39.079Z,100338.44
2022-12-06T23:21:20.360Z,100343.00
2022-12-06T23:23:49.654Z,100341.31
2022-12-06T23:26:18.956Z,100344.00
2022-12-06T23:28:46.399Z,100339.72
2022-12-06T23:31:17.422Z,100328.53
2022-12-06T23:33:46.141Z,100338.66
2022-12-06T23:36:21.429Z,100331.75
2022-12-06T23:38:48.566Z,100330.88
2022-12-06T23:41:17.940Z,100329.13
2022-12-06T23:43:45.280Z,100328.31
2022-12-06T23:46:20.600Z,100327.44
2022-12-06T23:48:48.731Z,100307.78
2022-12-06T23:51:18.958Z,100319.72
2022-12-06T23:53:50.331Z,100314.50
2022-12-06T23:56:18.603Z,100308.41
2022-12-06T23:58:45.957Z,100306.50
